Time;durP1;ratioP1;P1;durP2;ratioP2;P2;SDS_P1;SDS_P2;PMS_P1;PMS_P2;Temp;Humidity;BMP_temperature;BMP_pressure;BME280_temperature;BME280_humidity;BME280_pressure;Samples;Min_cycle;Max_cycle;Signal;HPM_P1;HPM_P2
2023/08/15 00:00:18;;;;;;;;;5.00;3.67;;;;;22.92;67.89;101202.41;2023600;28;2747188;-72
2023/08/15 00:01:29;;;;;;;;;5.00;3.67;;;;;22.89;67.66;101199.97;2031703;28;2751389;-73
2023/08/15 00:02:40;;;;;;;;;5.00;3.67;;;;;22.91;67.92;101210.59;2024528;28;2755029;-73
2023/08/15 00:03:51;;;;;;;;;4.00;3.33;;;;;22.92;67.53;101198.88;2028433;28;2752442;-73
2023/08/15 00:05:02;;;;;;;;;4.00;4.00;;;;;22.94;68.04;101199.59;2025666;28;3461713;-72
2023/08/15 00:06:14;;;;;;;;;5.33;4.00;;;;;22.96;67.92;101199.50;2010195;28;2748347;-72
2023/08/15 00:07:24;;;;;;;;;6.33;4.67;;;;;22.96;67.80;101200.34;2018290;28;2747240;-72
2023/08/15 00:08:35;;;;;;;;;4.33;3.33;;;;;22.96;69.20;101196.81;2036136;28;3464827;-72
2023/08/15 00:09:46;;;;;;;;;7.67;4.00;;;;;22.94;68.85;101194.25;2033030;28;3477366;-72
2023/08/15 00:10:58;;;;;;;;;6.00;4.00;;;;;22.92;69.08;101190.81;2048207;28;1811769;-72
2023/08/15 00:12:08;;;;;;;;;4.67;3.67;;;;;22.89;69.33;101197.28;2018781;28;2745134;-72
2023/08/15 00:13:19;;;;;;;;;4.67;4.67;;;;;22.87;69.20;101193.88;2033943;28;2738232;-72
2023/08/15 00:14:30;;;;;;;;;7.00;5.00;;;;;22.85;69.38;101192.28;2046289;28;1816913;-72
2023/08/15 00:15:41;;;;;;;;;6.00;5.00;;;;;22.81;70.03;101189.00;1999831;28;2743129;-72
2023/08/15 00:16:52;;;;;;;;;4.00;4.00;;;;;22.78;69.73;101191.94;2019879;28;3460653;-72
2023/08/15 00:18:03;;;;;;;;;6.67;4.00;;;;;22.77;70.15;101192.88;2011842;28;2746221;-72
2023/08/15 00:19:14;;;;;;;;;3.00;2.00;;;;;22.75;70.14;101186.78;2023845;28;2739880;-72
2023/08/15 00:20:25;;;;;;;;;5.33;5.00;;;;;22.74;70.43;101185.13;2035184;28;2745094;-72
2023/08/15 00:21:35;;;;;;;;;5.33;5.33;;;;;22.73;70.04;101180.72;1988263;28;2746673;-72
2023/08/15 00:22:46;;;;;;;;;5.67;5.00;;;;;22.71;69.98;101183.53;2026598;28;2745158;-72
2023/08/15 00:23:57;;;;;;;;;4.33;3.67;;;;;22.72;70.12;101187.06;2020888;28;3459659;-72
2023/08/15 00:25:08;;;;;;;;;4.00;4.00;;;;;22.70;70.55;101184.47;2024260;28;2745170;-72
2023/08/15 00:26:18;;;;;;;;;5.00;4.00;;;;;22.70;70.14;101190.69;2035640;28;2739914;-72
2023/08/15 00:27:30;;;;;;;;;6.67;4.33;;;;;22.69;70.65;101188.16;2024866;28;2740953;-72
2023/08/15 00:28:40;;;;;;;;;6.00;6.00;;;;;22.68;70.55;101183.72;2025511;28;1819521;-72
2023/08/15 00:29:51;;;;;;;;;5.00;5.00;;;;;22.66;70.63;101183.00;2000349;28;3461707;-72
2023/08/15 00:31:02;;;;;;;;;5.67;4.00;;;;;22.66;70.27;101183.84;2024417;28;3467946;-72
2023/08/15 00:32:13;;;;;;;;;6.00;4.00;;;;;22.64;70.62;101192.97;2023139;28;2745165;-72
2023/08/15 00:33:24;;;;;;;;;4.67;4.00;;;;;22.63;70.99;101192.13;2024650;28;2735788;-72
2023/08/15 00:34:35;;;;;;;;;5.33;4.00;;;;;22.63;69.43;101196.63;2024631;28;2749324;-73
2023/08/15 00:35:46;;;;;;;;;4.67;3.00;;;;;22.65;69.51;101200.03;2023927;28;2748239;-72
2023/08/15 00:36:56;;;;;;;;;5.33;4.00;;;;;22.67;69.42;101193.56;2023920;28;2748272;-72
2023/08/15 00:38:07;;;;;;;;;7.33;4.67;;;;;22.72;70.36;101201.28;2024350;28;2746193;-72
2023/08/15 00:39:18;;;;;;;;;4.67;4.67;;;;;22.74;70.33;101201.19;2026079;28;2748181;-72
2023/08/15 00:40:29;;;;;;;;;5.00;4.33;;;;;22.73;70.67;101202.16;2029670;28;2748193;-72
2023/08/15 00:41:40;;;;;;;;;5.00;5.00;;;;;22.72;69.63;101195.94;2022597;28;2739869;-72
2023/08/15 00:42:51;;;;;;;;;6.33;5.00;;;;;22.72;69.38;101195.94;2023693;28;2748230;-72
2023/08/15 00:44:02;;;;;;;;;5.00;5.00;;;;;22.74;70.02;101198.50;2023627;28;2735701;-72
2023/08/15 00:45:13;;;;;;;;;4.33;4.33;;;;;22.73;70.74;101196.78;2025034;28;2754557;-72
2023/08/15 00:46:26;;;;;;;;;3.00;3.00;;;;;22.72;71.31;101200.47;2026998;28;3458589;-72
2023/08/15 00:47:37;;;;;;;;;6.33;4.67;;;;;22.69;71.03;101201.56;2014346;28;3454416;-72
2023/08/15 00:48:49;;;;;;;;;3.00;3.00;;;;;22.68;70.02;101197.97;2018731;28;2747601;-72
2023/08/15 00:50:02;;;;;;;;;4.67;4.67;;;;;22.68;69.19;101195.31;2026500;28;2745078;-72
2023/08/15 00:51:12;;;;;;;;;3.67;3.67;;;;;22.70;69.44;101198.75;2024338;28;2753467;-72
2023/08/15 00:52:23;;;;;;;;;4.00;4.00;;;;;22.73;69.76;101203.00;2012433;28;2740905;-72
2023/08/15 00:53:35;;;;;;;;;5.00;5.00;;;;;22.76;70.59;101201.91;2021441;28;2745151;-72
2023/08/15 00:54:48;;;;;;;;;3.67;3.67;;;;;22.76;70.91;101207.28;2010959;28;2745166;-72
2023/08/15 00:55:59;;;;;;;;;8.00;5.00;;;;;22.74;70.68;101209.22;2010833;28;2742342;-72
2023/08/15 00:57:10;;;;;;;;;7.33;5.67;;;;;22.74;70.68;101209.22;2012858;28;3456494;-72
2023/08/15 00:58:22;;;;;;;;;5.67;4.67;;;;;22.74;70.24;101212.75;2027600;28;2754564;-72
2023/08/15 00:59:35;;;;;;;;;6.33;6.00;;;;;22.75;69.86;101209.09;2044723;28;2737769;-72
2023/08/15 01:00:45;;;;;;;;;5.33;4.00;;;;;22.75;71.04;101205.56;1994421;28;2752424;-72
2023/08/15 01:01:59;;;;;;;;;5.00;4.33;;;;;22.75;70.65;101194.84;2032021;28;2749309;-73
2023/08/15 01:03:10;;;;;;;;;6.67;5.67;;;;;22.73;70.75;101197.66;2019176;28;2729467;-72
2023/08/15 01:04:21;;;;;;;;;4.00;4.00;;;;;22.72;69.39;101200.47;2021591;28;2750363;-75
2023/08/15 01:05:32;;;;;;;;;5.67;3.67;;;;;22.73;69.53;101204.81;2013925;28;2746167;-73
2023/08/15 01:06:43;;;;;;;;;2.00;2.00;;;;;22.76;68.99;101204.59;2035486;28;2725279;-73
2023/08/15 01:07:55;;;;;;;;;4.00;3.00;;;;;22.79;68.75;101207.88;2015870;28;2737250;-76
2023/08/15 01:09:05;;;;;;;;;3.33;1.00;;;;;22.85;69.17;101211.91;2016029;28;2744046;-76
2023/08/15 01:10:16;;;;;;;;;5.67;3.00;;;;;22.91;68.29;101213.25;2031876;28;2754446;-76
2023/08/15 01:11:35;;;;;;;;;4.00;4.00;;;;;22.95;68.58;101211.19;2028550;28;3465917;-76
2023/08/15 01:12:54;;;;;;;;;6.33;5.33;;;;;23.01;69.73;101205.34;2018471;28;2741928;-74
2023/08/15 01:14:10;;;;;;;;;4.00;4.00;;;;;23.03;69.19;101208.75;2015210;28;3465890;-74
2023/08/15 01:15:28;;;;;;;;;4.00;4.00;;;;;23.05;67.94;101209.47;2010037;28;2751373;-74
2023/08/15 01:16:43;;;;;;;;;7.67;4.00;;;;;23.09;67.73;101207.44;2012516;28;2749275;-74
2023/08/15 01:18:15;;;;;;;;;4.00;4.00;;;;;23.13;68.07;101211.56;2018392;28;2744100;-80
2023/08/15 01:19:38;;;;;;;;;3.00;3.00;;;;;23.20;67.77;101214.59;2017050;28;2753514;-80
2023/08/15 01:20:55;;;;;;;;;2.83;2.00;;;;;23.24;67.40;101214.22;2039608;28;2741940;-78
2023/08/15 01:22:16;;;;;;;;;4.00;4.00;;;;;23.30;67.08;101210.22;1991299;28;2740039;-77
2023/08/15 01:23:42;;;;;;;;;6.00;3.67;;;;;23.36;67.60;101212.38;2026064;28;2747241;-77
2023/08/15 01:24:53;;;;;;;;;5.33;5.33;;;;;23.40;68.42;101209.47;2022874;28;3458606;-77
2023/08/15 01:26:03;;;;;;;;;5.67;4.00;;;;;23.43;67.41;101211.91;2019613;28;3465853;-77
2023/08/15 01:27:14;;;;;;;;;5.33;5.00;;;;;23.45;67.53;101213.50;2032230;28;2740966;-78
2023/08/15 01:28:25;;;;;;;;;4.33;4.00;;;;;23.49;67.28;101216.78;2031659;28;2749249;-77
2023/08/15 01:29:36;;;;;;;;;5.33;3.67;;;;;23.52;67.59;101216.53;2031512;28;3464831;-77
2023/08/15 01:30:55;;;;;;;;;4.00;3.00;;;;;23.56;67.11;101219.81;2038808;28;2731048;-75
2023/08/15 01:32:20;;;;;;;;;6.00;4.00;;;;;23.62;67.45;101221.16;1990293;28;2746138;-76
2023/08/15 01:33:43;;;;;;;;;6.00;5.00;;;;;23.63;68.14;101221.03;2011167;28;3458597;-82
2023/08/15 01:35:07;;;;;;;;;4.00;3.00;;;;;23.63;67.19;101220.19;2011808;28;2747225;-76
2023/08/15 01:36:30;;;;;;;;;6.00;4.00;;;;;23.63;67.14;101221.03;2011832;28;2746154;-75
2023/08/15 01:37:47;;;;;;;;;4.33;3.83;;;;;23.65;66.10;101219.09;2037817;28;2731508;-75
2023/08/15 01:39:00;;;;;;;;;5.00;4.33;;;;;23.68;67.05;101223.34;1989865;28;2743112;-75
2023/08/15 01:40:16;;;;;;;;;5.33;3.67;;;;;23.69;66.79;101227.72;2011906;28;2744122;-75
2023/08/15 01:41:31;;;;;;;;;4.67;3.00;;;;;23.72;67.30;101230.16;2015190;28;2737845;-75
2023/08/15 01:42:42;;;;;;;;;6.33;4.67;;;;;23.71;67.43;101233.81;2026884;28;3464847;-75
2023/08/15 01:43:54;;;;;;;;;4.00;4.00;;;;;23.70;67.67;101235.66;2033988;28;2750265;-74
2023/08/15 01:45:06;;;;;;;;;5.00;5.00;;;;;23.69;67.76;101230.41;2011435;28;3460680;-75
2023/08/15 01:46:17;;;;;;;;;5.67;5.00;;;;;23.65;67.67;101237.88;2016481;28;2739913;-74
2023/08/15 01:47:31;;;;;;;;;4.00;4.00;;;;;23.62;66.91;101235.44;2019698;28;2749864;-75
2023/08/15 01:48:42;;;;;;;;;3.00;3.00;;;;;23.62;66.83;101234.56;2020281;28;2737757;-75
2023/08/15 01:49:52;;;;;;;;;4.33;4.33;;;;;23.64;66.93;101238.84;2017858;28;2747213;-74
2023/08/15 01:51:03;;;;;;;;;3.00;3.00;;;;;23.66;66.51;101239.56;2021365;28;2738186;-75
2023/08/15 01:52:14;;;;;;;;;5.00;4.00;;;;;23.67;66.98;101240.41;2026051;28;3461715;-75
2023/08/15 01:53:25;;;;;;;;;4.00;3.00;;;;;23.71;66.82;101249.91;2030195;28;3467971;-76
2023/08/15 01:54:36;;;;;;;;;7.33;6.33;;;;;23.72;67.55;101248.94;2029311;28;2730523;-76
2023/08/15 01:55:47;;;;;;;;;5.00;4.00;;;;;23.68;67.93;101242.97;2026620;28;2744106;-75
2023/08/15 01:56:57;;;;;;;;;5.00;4.00;;;;;23.67;67.02;101252.00;2030563;28;3464852;-76
2023/08/15 01:58:08;;;;;;;;;5.00;3.00;;;;;23.65;66.26;101248.59;2025327;28;2750744;-76
2023/08/15 01:59:19;;;;;;;;;4.33;4.33;;;;;23.66;66.84;101247.59;2025645;28;2748263;-76
2023/08/15 02:00:30;;;;;;;;;4.33;4.33;;;;;23.69;66.77;101244.69;2022593;28;2754524;-72
2023/08/15 02:01:41;;;;;;;;;5.00;4.00;;;;;23.70;66.46;101249.09;2025348;28;2749226;-72
2023/08/15 02:02:52;;;;;;;;;5.00;5.00;;;;;23.73;66.66;101252.50;2024774;28;2748216;-72
2023/08/15 02:04:03;;;;;;;;;4.33;4.33;;;;;23.74;66.47;101252.34;2033564;28;2741951;-72
2023/08/15 02:05:14;;;;;;;;;5.00;5.00;;;;;23.76;66.94;101250.38;2028379;28;2746107;-72
2023/08/15 02:06:24;;;;;;;;;6.00;4.00;;;;;23.77;66.76;101254.78;2027696;28;2751498;-72
2023/08/15 02:07:35;;;;;;;;;3.00;3.00;;;;;23.78;66.65;101255.66;2025753;28;2740903;-72
2023/08/15 02:08:46;;;;;;;;;5.67;5.00;;;;;23.77;67.09;101253.94;2025536;28;2741040;-73
2023/08/15 02:09:57;;;;;;;;;5.00;5.00;;;;;23.76;67.15;101252.22;2024225;28;3461702;-73
2023/08/15 02:11:08;;;;;;;;;7.00;3.00;;;;;23.72;67.63;101254.31;2025750;28;2745116;-73
2023/08/15 02:12:19;;;;;;;;;5.67;4.00;;;;;23.66;66.79;101242.25;2023302;28;2750355;-73
2023/08/15 02:13:33;;;;;;;;;3.00;3.00;;;;;23.65;67.24;101239.69;2025193;28;2748283;-74
2023/08/15 02:14:44;;;;;;;;;4.00;4.00;;;;;23.60;66.69;101238.25;2012807;28;2752507;-74
2023/08/15 02:15:54;;;;;;;;;4.00;4.00;;;;;23.59;67.38;101238.34;2028781;28;2754523;-74
2023/08/15 02:17:05;;;;;;;;;8.00;6.00;;;;;23.55;67.29;101239.59;2025357;28;2474171;-74
2023/08/15 02:18:16;;;;;;;;;5.33;4.33;;;;;23.49;66.98;101240.94;2026068;28;2746144;-73
2023/08/15 02:19:27;;;;;;;;;4.67;3.33;;;;;23.44;66.96;101252.00;2023401;28;3470529;-74
2023/08/15 02:20:38;;;;;;;;;7.00;4.33;;;;;23.40;67.14;101252.38;2025861;28;2746182;-74
2023/08/15 02:21:51;;;;;;;;;4.00;4.00;;;;;23.36;67.70;101260.66;2024269;28;2746106;-74
2023/08/15 02:23:01;;;;;;;;;4.00;4.00;;;;;23.32;67.13;101261.03;2011718;28;2745041;-74
2023/08/15 02:24:12;;;;;;;;;4.00;4.00;;;;;23.27;67.56;101259.56;2026417;28;3465861;-74
2023/08/15 02:25:23;;;;;;;;;5.33;5.00;;;;;23.22;68.38;101251.03;2041481;28;1813817;-73
2023/08/15 02:26:35;;;;;;;;;7.33;5.00;;;;;23.18;68.08;101248.72;1990884;28;3458605;-75
2023/08/15 02:27:46;;;;;;;;;7.33;5.33;;;;;23.12;68.26;101250.91;2011868;28;2745537;-74
2023/08/15 02:28:57;;;;;;;;;4.00;4.00;;;;;23.07;68.17;101252.25;2028932;28;3468024;-75
2023/08/15 02:30:08;;;;;;;;;5.00;3.00;;;;;23.03;68.57;101247.13;2025563;28;3463783;-74
2023/08/15 02:31:18;;;;;;;;;7.00;5.67;;;;;23.01;68.28;101253.59;2013133;28;3459671;-74
2023/08/15 02:32:29;;;;;;;;;3.67;3.67;;;;;22.98;67.76;101257.38;2028799;28;2747138;-73
2023/08/15 02:33:40;;;;;;;;;4.33;4.00;;;;;22.96;68.70;101255.78;2033304;28;3467941;-74
2023/08/15 02:34:51;;;;;;;;;6.67;5.00;;;;;22.92;68.28;101266.72;2033455;28;2746107;-74
2023/08/15 02:36:06;;;;;;;;;5.00;4.00;;;;;22.88;68.65;101264.41;2018953;28;2747719;-74
2023/08/15 02:37:16;;;;;;;;;5.00;5.00;;;;;22.84;68.09;101261.09;2018902;28;2748303;-74
2023/08/15 02:38:27;;;;;;;;;5.00;4.33;;;;;22.81;68.50;101253.31;2034312;28;3464843;-74
2023/08/15 02:39:38;;;;;;;;;3.67;3.67;;;;;22.77;69.05;101258.06;2044832;28;2737777;-74
2023/08/15 02:40:48;;;;;;;;;5.00;5.00;;;;;22.74;68.33;101254.78;1996726;28;3459655;-74
2023/08/15 02:41:59;;;;;;;;;5.33;4.67;;;;;22.71;69.19;101253.19;2034797;28;2750365;-74
2023/08/15 02:43:10;;;;;;;;;5.00;5.00;;;;;22.67;69.02;101255.19;2025302;28;2740971;-74
2023/08/15 02:44:22;;;;;;;;;3.25;2.50;;;;;22.64;69.18;101252.78;2036604;28;2740885;-73
2023/08/15 02:45:32;;;;;;;;;6.00;3.67;;;;;22.60;68.97;101252.13;2011138;28;2748265;-73
2023/08/15 02:46:43;;;;;;;;;5.33;4.00;;;;;22.56;69.51;101241.78;2035031;28;2747230;-75
2023/08/15 02:47:54;;;;;;;;;4.00;4.00;;;;;22.52;69.62;101238.47;2032264;28;2743034;-74
2023/08/15 02:49:05;;;;;;;;;6.00;5.00;;;;;22.49;69.75;101234.19;2031982;28;2746106;-75
2023/08/15 02:50:16;;;;;;;;;3.00;3.00;;;;;22.46;69.32;101242.50;2027988;28;2749769;-74
2023/08/15 02:51:27;;;;;;;;;3.33;3.33;;;;;22.43;69.61;101244.53;2027206;28;3456517;-74
2023/08/15 02:52:38;;;;;;;;;5.00;4.00;;;;;22.40;69.32;101242.13;2024785;28;2751353;-74
2023/08/15 02:53:49;;;;;;;;;7.67;3.67;;;;;22.37;69.81;101238.66;2031476;28;2752446;-76
2023/08/15 02:54:59;;;;;;;;;4.67;4.67;;;;;22.36;69.97;101244.16;2029855;28;2748264;-75
2023/08/15 02:56:10;;;;;;;;;5.00;5.00;;;;;22.37;70.16;101245.88;2024698;28;2746095;-75
2023/08/15 02:57:21;;;;;;;;;4.33;3.33;;;;;22.36;69.82;101241.47;2024487;28;2746142;-75
2023/08/15 02:58:32;;;;;;;;;3.00;3.00;;;;;22.36;70.42;101252.19;2024204;28;2743055;-74
2023/08/15 02:59:43;;;;;;;;;5.33;5.33;;;;;22.35;70.41;101253.16;2024318;28;2746201;-74
2023/08/15 03:00:54;;;;;;;;;4.33;3.67;;;;;22.33;69.95;101247.06;2024975;28;3462737;-74
2023/08/15 03:02:06;;;;;;;;;6.00;4.50;;;;;22.31;70.40;101252.53;2041027;28;1823216;-74
2023/08/15 03:03:16;;;;;;;;;5.33;3.67;;;;;22.28;70.32;101242.06;2017329;28;2747156;-74
2023/08/15 03:04:27;;;;;;;;;6.33;4.00;;;;;22.26;70.28;101244.84;2033740;28;2748273;-74
2023/08/15 03:05:38;;;;;;;;;4.33;4.00;;;;;22.25;70.49;101251.16;2033109;28;2744175;-73
2023/08/15 03:06:49;;;;;;;;;4.67;4.67;;;;;22.23;70.82;101247.75;2013287;28;2746214;-74
2023/08/15 03:08:00;;;;;;;;;3.00;3.00;;;;;22.23;70.88;101245.06;2027225;28;3467933;-74
2023/08/15 03:09:10;;;;;;;;;6.00;6.00;;;;;22.22;70.26;101248.75;2025596;28;2740898;-73
2023/08/15 03:10:21;;;;;;;;;6.00;4.00;;;;;22.21;70.72;101246.16;2024773;28;2749303;-75
2023/08/15 03:11:32;;;;;;;;;4.00;4.00;;;;;22.20;70.16;101247.16;2024152;28;3463782;-74
2023/08/15 03:12:43;;;;;;;;;6.00;4.00;;;;;22.21;70.71;101252.38;2025253;28;2752442;-75
2023/08/15 03:13:54;;;;;;;;;3.33;3.00;;;;;22.19;70.20;101251.63;2024741;28;2746622;-76
2023/08/15 03:15:05;;;;;;;;;5.00;4.33;;;;;22.16;70.15;101254.53;2019836;28;2750362;-76
2023/08/15 03:16:16;;;;;;;;;6.67;4.67;;;;;22.13;70.58;101249.41;2016211;28;2737789;-76
2023/08/15 03:17:27;;;;;;;;;6.00;3.00;;;;;22.12;70.16;101247.72;2024037;28;3467965;-76
2023/08/15 03:18:37;;;;;;;;;4.33;4.33;;;;;22.10;70.35;101244.31;2019715;28;2750731;-76
2023/08/15 03:19:48;;;;;;;;;5.67;4.00;;;;;22.08;70.98;101241.72;2029593;28;2748332;-76
2023/08/15 03:21:01;;;;;;;;;4.00;3.67;;;;;22.06;69.90;101237.44;2029034;28;3465980;-77
2023/08/15 03:22:12;;;;;;;;;3.33;3.33;;;;;22.06;70.30;101243.66;2018405;28;2753425;-76
2023/08/15 03:23:23;;;;;;;;;4.67;4.67;;;;;22.08;69.95;101247.06;2028039;28;2748285;-75
2023/08/15 03:24:37;;;;;;;;;6.00;5.00;;;;;22.11;70.53;101248.66;2045327;28;2745053;-76
2023/08/15 03:26:16;;;;;;;;;1.83;1.33;;;;;22.14;69.63;101251.13;2020137;28;2735710;-78
2023/08/15 03:27:27;;;;;;;;;6.00;3.67;;;;;22.17;70.06;101255.41;1986645;28;3467413;-76
2023/08/15 03:28:38;;;;;;;;;5.67;5.00;;;;;22.16;70.18;101249.19;2020329;28;2746109;-75
2023/08/15 03:29:48;;;;;;;;;5.00;4.00;;;;;22.14;69.97;101251.13;2024708;28;3470047;-75
2023/08/15 03:31:08;;;;;;;;;5.75;5.00;;;;;22.12;70.68;101253.94;2044862;28;1822154;-75
2023/08/15 03:32:19;;;;;;;;;4.00;4.00;;;;;22.10;69.96;101255.84;2011172;28;2749694;-75
2023/08/15 03:33:30;;;;;;;;;5.33;4.00;;;;;22.08;70.25;101256.91;2028132;28;2746181;-75
2023/08/15 03:34:40;;;;;;;;;8.00;4.00;;;;;22.07;69.86;101261.44;2024801;28;3460641;-75
2023/08/15 03:35:52;;;;;;;;;5.00;4.50;;;;;22.09;70.60;101266.66;2035232;28;2740922;-75
2023/08/15 03:37:05;;;;;;;;;5.50;4.67;;;;;22.09;70.62;101278.25;2036581;28;2740919;-75
2023/08/15 03:38:18;;;;;;;;;7.33;6.00;;;;;22.09;70.57;101274.69;1988194;28;2744007;-74
2023/08/15 03:39:29;;;;;;;;;4.00;4.00;;;;;22.09;69.94;101278.25;2011786;28;2747148;-75
2023/08/15 03:40:40;;;;;;;;;4.00;4.00;;;;;22.09;70.00;101277.38;2027106;28;2755028;-73
2023/08/15 03:41:50;;;;;;;;;5.67;3.00;;;;;22.09;70.41;101274.69;2023661;28;2752415;-72
2023/08/15 03:43:01;;;;;;;;;5.33;2.67;;;;;22.08;70.22;101283.69;2024662;28;3464836;-72
2023/08/15 03:44:12;;;;;;;;;4.00;4.00;;;;;22.07;70.81;101288.22;2021940;28;2754517;-73
2023/08/15 03:45:23;;;;;;;;;5.00;3.00;;;;;22.04;70.14;101277.72;2040538;28;2745053;-73
2023/08/15 03:46:34;;;;;;;;;3.67;3.67;;;;;22.02;70.67;101282.34;1989532;28;2746558;-73
2023/08/15 03:47:44;;;;;;;;;5.00;5.00;;;;;22.00;70.54;101287.78;2036154;28;2744118;-74
2023/08/15 03:48:55;;;;;;;;;5.00;3.33;;;;;21.98;70.02;101294.22;2033081;28;2754503;-73
2023/08/15 03:50:07;;;;;;;;;3.33;3.33;;;;;21.96;70.55;101286.31;2040099;28;2750752;-73
2023/08/15 03:51:17;;;;;;;;;4.00;4.00;;;;;21.94;70.10;101287.38;2030549;28;2738841;-73
2023/08/15 03:52:28;;;;;;;;;4.33;3.00;;;;;21.90;69.96;101298.31;2028485;28;2746187;-73
2023/08/15 03:53:39;;;;;;;;;4.00;4.00;;;;;21.91;70.75;101300.03;2023654;28;2750370;-74
2023/08/15 03:54:50;;;;;;;;;3.33;3.33;;;;;21.90;69.84;101306.31;2010775;28;2742121;-73
2023/08/15 03:56:01;;;;;;;;;3.00;3.00;;;;;21.90;69.97;101311.69;2036444;28;2748532;-73
2023/08/15 03:57:14;;;;;;;;;4.00;3.50;;;;;21.92;70.05;101312.44;2014060;28;2734688;-73
2023/08/15 03:58:25;;;;;;;;;4.67;3.00;;;;;21.97;69.66;101312.13;1986873;28;3467952;-74
2023/08/15 03:59:35;;;;;;;;;3.67;3.67;;;;;22.00;69.45;101313.72;2014776;28;2745556;-74
2023/08/15 04:00:47;;;;;;;;;2.33;2.00;;;;;22.04;70.07;101323.22;2024604;28;2742009;-74
2023/08/15 04:01:58;;;;;;;;;7.33;4.00;;;;;22.07;69.82;101320.31;2009948;28;2750972;-74
2023/08/15 04:03:09;;;;;;;;;5.67;4.00;;;;;22.10;69.93;101324.59;2034521;28;2750366;-75
2023/08/15 04:04:19;;;;;;;;;5.00;5.00;;;;;22.10;69.48;101329.94;2024544;28;2748234;-75
2023/08/15 04:05:31;;;;;;;;;5.33;3.00;;;;;22.07;69.60;101325.69;2032297;28;2750331;-75
2023/08/15 04:06:41;;;;;;;;;5.00;4.00;;;;;22.06;69.72;101331.13;2020215;28;3465928;-75
2023/08/15 04:07:52;;;;;;;;;3.00;3.00;;;;;22.03;69.59;101333.06;2032113;28;2743038;-74
2023/08/15 04:09:03;;;;;;;;;6.00;4.33;;;;;22.00;69.62;101335.94;2031742;28;2748294;-74
2023/08/15 04:10:14;;;;;;;;;3.33;3.33;;;;;21.98;69.32;101335.22;2026651;28;2754531;-74
2023/08/15 04:11:25;;;;;;;;;5.33;4.00;;;;;21.96;69.71;101333.63;2020835;28;2748295;-74
2023/08/15 04:12:36;;;;;;;;;2.00;2.00;;;;;21.94;68.93;101335.56;2040164;28;2739836;-76
2023/08/15 04:13:46;;;;;;;;;7.00;5.00;;;;;21.92;69.44;101339.22;1996209;28;2745237;-75
2023/08/15 04:14:57;;;;;;;;;4.00;4.00;;;;;21.90;69.16;101340.28;2029771;28;2744031;-81
2023/08/15 04:16:08;;;;;;;;;4.00;4.00;;;;;21.88;69.15;101339.50;2033624;28;3470044;-78
2023/08/15 04:17:19;;;;;;;;;7.00;3.00;;;;;21.86;69.63;101345.00;2033217;27;2750379;-77
2023/08/15 04:18:30;;;;;;;;;6.00;4.00;;;;;21.87;69.49;101343.16;2026814;28;2744051;-76
2023/08/15 04:19:40;;;;;;;;;4.67;3.00;;;;;21.87;69.57;101352.06;2030900;28;2741098;-75
2023/08/15 04:20:52;;;;;;;;;4.33;2.33;;;;;21.88;69.59;101356.44;2032619;28;3455477;-75
2023/08/15 04:22:03;;;;;;;;;4.33;3.00;;;;;21.89;69.83;101350.13;2019118;28;2740926;-74
2023/08/15 04:23:13;;;;;;;;;5.67;5.67;;;;;21.90;69.68;101349.16;2025078;28;2740974;-74
2023/08/15 04:24:24;;;;;;;;;6.67;5.67;;;;;21.88;69.37;101352.91;2033038;28;3456483;-74
2023/08/15 04:25:38;;;;;;;;;5.33;5.00;;;;;21.84;69.22;101348.69;2032670;28;2742970;-74
2023/08/15 04:26:48;;;;;;;;;6.00;4.00;;;;;21.79;69.43;101349.91;2016356;28;2752437;-74
2023/08/15 04:27:59;;;;;;;;;5.33;5.00;;;;;21.76;69.43;101344.75;2028991;28;2742982;-74
2023/08/15 04:29:11;;;;;;;;;3.50;3.50;;;;;21.73;69.24;101347.66;2043751;28;2735710;-75
2023/08/15 04:30:21;;;;;;;;;5.00;5.00;;;;;21.69;68.95;101346.16;1994071;28;2741065;-75
2023/08/15 04:31:32;;;;;;;;;5.00;4.00;;;;;21.69;69.35;101348.84;2030703;28;2746161;-76
2023/08/15 04:32:45;;;;;;;;;3.67;3.67;;;;;21.67;69.55;101353.44;2022420;28;2745081;-75
2023/08/15 04:33:55;;;;;;;;;5.00;4.00;;;;;21.64;69.08;101350.97;2011196;28;2741917;-75
2023/08/15 04:35:07;;;;;;;;;4.33;4.33;;;;;21.61;69.74;101346.69;2027624;28;3470040;-76
2023/08/15 04:36:18;;;;;;;;;6.67;5.00;;;;;21.56;69.35;101344.34;2010925;28;2738807;-76
2023/08/15 04:37:29;;;;;;;;;5.00;4.00;;;;;21.54;69.62;101348.09;2027595;28;2741026;-77
2023/08/15 04:38:40;;;;;;;;;4.00;4.00;;;;;21.51;69.68;101349.16;2023326;28;2740895;-76
2023/08/15 04:39:51;;;;;;;;;3.25;2.25;;;;;21.49;69.67;101345.75;2043042;28;2739907;-74
2023/08/15 04:41:04;;;;;;;;;3.67;3.67;;;;;21.46;69.77;101343.28;2017523;28;2750418;-74
2023/08/15 04:42:15;;;;;;;;;4.00;4.00;;;;;21.43;69.90;101347.06;2010695;28;2738862;-74
2023/08/15 04:43:26;;;;;;;;;5.00;4.00;;;;;21.42;69.51;101347.16;2035108;28;2746081;-73
2023/08/15 04:44:37;;;;;;;;;5.00;5.00;;;;;21.40;70.03;101349.94;2013684;28;2749713;-73
2023/08/15 04:45:48;;;;;;;;;5.67;4.00;;;;;21.40;69.98;101344.59;2024762;28;2745147;-73
2023/08/15 04:46:59;;;;;;;;;3.67;3.00;;;;;21.39;69.67;101353.56;2032562;28;3452343;-73
2023/08/15 04:48:10;;;;;;;;;4.33;4.33;;;;;21.38;69.60;101351.00;2028370;28;3465900;-73
2023/08/15 04:49:21;;;;;;;;;4.00;4.00;;;;;21.35;69.92;101354.75;2010258;28;2746246;-74
2023/08/15 04:50:31;;;;;;;;;4.67;4.00;;;;;21.33;69.82;101344.16;2027366;28;2746087;-73
2023/08/15 04:51:43;;;;;;;;;4.00;4.00;;;;;21.34;69.66;101347.69;2031378;28;2749279;-73
2023/08/15 04:52:53;;;;;;;;;6.33;4.33;;;;;21.35;69.94;101349.41;2017148;28;2747231;-76
2023/08/15 04:54:05;;;;;;;;;7.67;5.00;;;;;21.37;69.69;101358.16;2026433;28;2748536;-76
2023/08/15 04:55:15;;;;;;;;;6.00;3.67;;;;;21.38;70.04;101356.34;2017816;28;2750350;-78
2023/08/15 04:56:26;;;;;;;;;4.00;4.00;;;;;21.38;69.67;101356.34;2021350;28;2752395;-74
2023/08/15 04:57:37;;;;;;;;;4.00;4.00;;;;;21.38;69.86;101351.00;2017628;28;2747269;-75
2023/08/15 04:58:48;;;;;;;;;3.33;3.33;;;;;21.39;70.06;101353.56;2021581;28;2749940;-79
2023/08/15 04:59:59;;;;;;;;;8.00;4.00;;;;;21.42;69.50;101363.19;2028327;28;3465882;-76
2023/08/15 05:01:10;;;;;;;;;5.00;4.00;;;;;21.43;69.70;101355.09;2031612;28;3463798;-76
2023/08/15 05:02:21;;;;;;;;;3.67;3.33;;;;;21.43;70.10;101355.09;2029575;28;2743005;-77
2023/08/15 05:03:31;;;;;;;;;3.00;3.00;;;;;21.43;69.68;101357.75;2031403;28;2737089;-78
2023/08/15 05:04:42;;;;;;;;;7.00;4.00;;;;;21.42;69.42;101364.06;2031269;28;2740993;-76
2023/08/15 05:05:53;;;;;;;;;4.33;4.33;;;;;21.40;69.63;101360.63;2031958;28;2746098;-76
2023/08/15 05:07:04;;;;;;;;;5.33;4.00;;;;;21.36;70.06;101359.97;2032489;28;2745099;-76
2023/08/15 05:08:15;;;;;;;;;4.00;3.00;;;;;21.34;69.86;101369.94;2027335;28;3468986;-76
2023/08/15 05:09:28;;;;;;;;;3.33;3.33;;;;;21.33;69.55;101364.69;2022895;28;2746089;-74
2023/08/15 05:10:39;;;;;;;;;7.00;4.00;;;;;21.31;70.04;101363.94;2012318;28;2736817;-74
2023/08/15 05:11:50;;;;;;;;;3.00;3.00;;;;;21.27;69.82;101365.97;2035940;28;2749322;-75
2023/08/15 05:13:01;;;;;;;;;5.00;5.00;;;;;21.30;69.65;101370.25;2027382;28;2746207;-73
2023/08/15 05:14:13;;;;;;;;;6.00;5.00;;;;;21.29;70.05;101364.03;2023302;28;2744094;-74
2023/08/15 05:15:23;;;;;;;;;4.00;4.00;;;;;21.30;70.17;101368.44;2016969;28;2754567;-75
2023/08/15 05:16:34;;;;;;;;;4.33;4.33;;;;;21.34;69.90;101356.56;2028504;28;3466329;-74
2023/08/15 05:17:48;;;;;;;;;3.67;3.00;;;;;21.37;69.89;101363.50;2028953;28;3451279;-74
2023/08/15 05:18:58;;;;;;;;;5.67;3.67;;;;;21.38;69.72;101359.03;2019437;28;3465870;-74
2023/08/15 05:20:10;;;;;;;;;4.00;3.00;;;;;21.38;70.06;101362.56;2033136;28;2750285;-74
2023/08/15 05:21:20;;;;;;;;;5.00;5.00;;;;;21.39;69.98;101358.06;2016531;28;2747187;-74
2023/08/15 05:22:32;;;;;;;;;6.00;4.00;;;;;21.40;70.10;101362.44;2036366;28;3470147;-75
2023/08/15 05:23:42;;;;;;;;;5.00;5.00;;;;;21.40;69.91;101362.44;2019454;28;2746106;-78
2023/08/15 05:24:53;;;;;;;;;7.67;4.33;;;;;21.40;69.93;101363.31;2036166;28;2746475;-78
2023/08/15 05:26:04;;;;;;;;;5.33;4.00;;;;;21.40;69.98;101365.97;2028311;28;2754442;-77